Etusivu
METAR-TAF:

METAR-TAF

Lentoasemat :

Brysselin lentoasema

Bryssel, Belgia

Leveyspiiri: 50-54N, Pituuspiiri: 004-32E, korkeus merenpinnasta: 55 m

Tämänhetkinen sää

Tämä raportti tehtiin 29 minuuttia sitten, kello 19.20 UTC
Tuuli 5 kn idästä/koillisesta
Lämpötila 17°C
Kosteus 39%
Ilmanpaine 1030 hPa
Näkyvyys 10 km tai enemmän
ei pilviä alle 1500 m:ssä eikä cumulonimbus-pilviä

METAR: EBBR 281920Z 06005KT CAVOK 17/03 Q1030 NOSIG

Aika: 21:49 (19:49 UTC)

Sääennuste

Tämä raportti tehtiin 2 tuntia ja 39 minuuttia sitten, kello 17.10 UTC
Ennuste voimassa 28. päivästä klo 18 UTC - 29. päivään klo 24 UTC
Tuuli 8 kn pohjoisesta/koillisesta
Näkyvyys 10 km tai enemmän
ei pilviä alle 1500 m:ssä eikä cumulonimbus-pilviä

TAF: EBBR 281710Z 2818/2924 03008KT CAVOK

Säähavainnot ja -ennusteet yli 4000 lentoasemalta (METAR- ja TAF-raportit).

Käytössä olevat sääasemat on merkitty karttaan keltaisilla ja punaisilla pisteillä.

Aseta hiiri pisteen päälle nähdäksesi sääaseman nimen.

Klikkaa sitten nähdäksesi säähavainnot ja -ennusteet.

Kartan vaihtaminen: klikkaa mustalla rastilla varustettuja vihreitä pisteitä, niin voit zoomata sisään; viivalla varustettua vihreää pistettä, niin voit zoomata ulos tai vihreitä nuolia, niin pääset viereisille kartoille.


METAR-TAF: